Time;durP1;ratioP1;P1;durP2;ratioP2;P2;SDS_P1;SDS_P2;PMS_P1;PMS_P2;Temp;Humidity;BMP_temperature;BMP_pressure;BME280_temperature;BME280_humidity;BME280_pressure;Samples;Min_cycle;Max_cycle;Signal;HPM_P1;HPM_P2
2022/03/20 00:00:33;;;;;;;13.55;6.20;;;5.20;99.90;;;;;;5007440;28;20065;-85
2022/03/20 00:03:05;;;;;;;11.82;4.88;;;5.20;99.90;;;;;;5025802;28;20132;-87
2022/03/20 00:05:31;;;;;;;10.80;4.97;;;5.20;99.90;;;;;;5016502;28;20432;-87
2022/03/20 00:07:56;;;;;;;10.50;5.60;;;5.20;99.90;;;;;;5006805;28;20167;-86
2022/03/20 00:10:23;;;;;;;10.85;5.53;;;5.20;99.90;;;;;;5011280;28;20043;-88
2022/03/20 00:12:48;;;;;;;11.10;5.43;;;5.10;99.90;;;;;;5027129;28;20164;-86
2022/03/20 00:15:14;;;;;;;10.38;5.47;;;5.10;99.90;;;;;;5018145;28;20071;-86
2022/03/20 00:17:39;;;;;;;10.10;5.47;;;5.10;99.90;;;;;;5005864;28;20073;-86
2022/03/20 00:20:06;;;;;;;10.18;5.20;;;5.00;99.90;;;;;;5006293;28;20409;-86
2022/03/20 00:22:34;;;;;;;9.38;4.50;;;5.00;99.90;;;;;;5006075;28;20431;-88
2022/03/20 00:25:00;;;;;;;13.18;5.03;;;4.90;99.90;;;;;;5007054;28;20069;-87
2022/03/20 00:27:26;;;;;;;10.13;5.28;;;4.90;99.90;;;;;;5013933;28;20076;-87
2022/03/20 00:29:51;;;;;;;12.23;6.38;;;4.90;99.90;;;;;;5022252;28;20053;-87
2022/03/20 00:32:19;;;;;;;10.48;4.75;;;4.80;99.90;;;;;;5007336;28;20049;-87
2022/03/20 00:34:45;;;;;;;10.30;5.28;;;4.80;99.90;;;;;;4989026;28;20081;-85
2022/03/20 00:37:11;;;;;;;11.38;5.63;;;4.70;99.90;;;;;;5005442;28;20266;-87
2022/03/20 00:39:37;;;;;;;11.68;4.95;;;4.70;99.90;;;;;;5005794;28;20045;-86
2022/03/20 00:42:03;;;;;;;9.70;5.05;;;4.70;99.90;;;;;;5012023;28;20054;-87
2022/03/20 00:44:29;;;;;;;11.40;5.38;;;4.60;99.90;;;;;;5009207;28;20053;-89
2022/03/20 00:46:54;;;;;;;12.18;6.05;;;4.60;99.90;;;;;;5005453;28;20461;-88
2022/03/20 00:49:20;;;;;;;12.73;5.60;;;4.50;99.90;;;;;;5007386;28;20045;-87
2022/03/20 00:51:45;;;;;;;11.65;5.85;;;4.50;99.90;;;;;;5015514;28;20048;-86
2022/03/20 00:54:11;;;;;;;10.60;5.70;;;4.50;99.90;;;;;;5025517;28;20052;-87
2022/03/20 00:56:38;;;;;;;13.15;5.72;;;4.50;99.90;;;;;;5009612;28;20045;-88
2022/03/20 00:59:04;;;;;;;11.75;5.65;;;4.50;99.90;;;;;;5005822;28;20086;-88
2022/03/20 01:01:31;;;;;;;12.18;5.80;;;4.40;99.90;;;;;;5006760;28;20054;-86
2022/03/20 01:03:57;;;;;;;11.43;5.78;;;4.40;99.90;;;;;;5006756;28;20126;-85
2022/03/20 01:06:22;;;;;;;10.23;5.63;;;4.40;99.90;;;;;;5014948;28;20548;-86
2022/03/20 01:08:49;;;;;;;12.55;6.25;;;4.30;99.90;;;;;;5024835;28;20177;-86
2022/03/20 01:11:16;;;;;;;12.00;5.90;;;4.30;99.90;;;;;;4997321;28;20068;-87
2022/03/20 01:13:42;;;;;;;10.68;5.72;;;4.30;99.90;;;;;;4988675;28;20138;-86
2022/03/20 01:16:07;;;;;;;13.88;6.47;;;4.20;99.90;;;;;;5009808;28;20150;-87
2022/03/20 01:18:33;;;;;;;14.15;6.20;;;4.20;99.90;;;;;;5007024;28;20087;-88
2022/03/20 01:20:59;;;;;;;12.38;6.40;;;4.20;99.90;;;;;;5004545;28;20137;-86
2022/03/20 01:23:24;;;;;;;12.63;5.63;;;4.20;99.90;;;;;;5007038;28;20037;-88
2022/03/20 01:25:51;;;;;;;12.38;5.68;;;4.20;99.90;;;;;;4988440;28;20071;-87
2022/03/20 01:28:19;;;;;;;13.63;6.60;;;4.20;99.90;;;;;;5006683;28;20046;-87
2022/03/20 01:30:45;;;;;;;13.50;6.30;;;4.10;99.90;;;;;;5003826;28;20064;-86
2022/03/20 01:33:11;;;;;;;11.98;6.15;;;4.10;99.90;;;;;;5026272;28;20050;-87
2022/03/20 01:35:36;;;;;;;13.88;6.15;;;4.10;99.90;;;;;;5021804;28;20404;-86
2022/03/20 01:38:04;;;;;;;13.07;5.95;;;4.10;99.90;;;;;;5005200;28;20477;-87
2022/03/20 01:40:30;;;;;;;13.98;5.82;;;4.00;99.90;;;;;;4989021;28;20440;-87
2022/03/20 01:42:55;;;;;;;13.55;6.00;;;4.00;99.90;;;;;;4988351;28;20046;-86
2022/03/20 01:45:23;;;;;;;12.00;6.38;;;4.00;99.90;;;;;;4989389;28;20592;-87
2022/03/20 01:47:50;;;;;;;12.20;5.70;;;3.90;99.90;;;;;;5004274;28;20118;-86
2022/03/20 01:50:18;;;;;;;12.23;6.53;;;3.90;99.90;;;;;;5005712;28;20411;-87
2022/03/20 01:52:45;;;;;;;13.77;6.28;;;3.90;99.90;;;;;;5005933;28;20477;-87
2022/03/20 01:55:13;;;;;;;13.20;6.45;;;3.90;99.90;;;;;;5006299;28;20066;-87
2022/03/20 01:57:39;;;;;;;12.63;6.25;;;3.90;99.90;;;;;;5005643;28;20100;-86
2022/03/20 02:00:07;;;;;;;12.90;6.00;;;3.90;99.90;;;;;;5004724;28;20034;-87
2022/03/20 02:02:32;;;;;;;14.00;6.80;;;3.80;99.90;;;;;;5005946;28;20114;-86
2022/03/20 02:04:58;;;;;;;12.50;6.32;;;3.80;99.90;;;;;;5005395;28;20049;-87
2022/03/20 02:07:25;;;;;;;14.40;6.90;;;3.80;99.90;;;;;;5004874;28;20061;-87
2022/03/20 02:09:51;;;;;;;14.85;6.57;;;3.70;99.90;;;;;;5004342;28;20092;-87
2022/03/20 02:12:17;;;;;;;13.38;7.03;;;3.70;99.90;;;;;;5004684;28;20077;-85
2022/03/20 02:14:43;;;;;;;13.70;6.47;;;3.70;99.90;;;;;;5005679;28;20503;-88
2022/03/20 02:17:12;;;;;;;14.23;6.55;;;3.70;99.90;;;;;;5005472;28;20042;-87
2022/03/20 02:19:39;;;;;;;13.77;6.82;;;3.70;99.90;;;;;;5005593;28;20072;-87
2022/03/20 02:22:05;;;;;;;17.35;6.70;;;3.60;99.90;;;;;;4987851;28;20061;-86
2022/03/20 02:24:41;;;;;;;15.95;7.00;;;3.60;99.90;;;;;;5004837;28;20042;-87
2022/03/20 02:27:22;;;;;;;14.80;7.05;;;3.60;99.90;;;;;;5006839;28;20042;-86
2022/03/20 02:29:57;;;;;;;15.27;7.50;;;3.60;99.90;;;;;;5014616;28;20054;-86
2022/03/20 02:32:27;;;;;;;13.93;7.32;;;3.60;99.90;;;;;;5021240;28;20046;-85
2022/03/20 02:34:53;;;;;;;16.45;7.75;;;3.60;99.90;;;;;;5027283;28;20049;-87
2022/03/20 02:37:22;;;;;;;13.40;6.47;;;3.50;99.90;;;;;;5005470;28;20405;-86
2022/03/20 02:39:49;;;;;;;14.93;6.80;;;3.50;99.90;;;;;;5028625;28;20417;-86
2022/03/20 02:42:18;;;;;;;13.70;7.38;;;3.50;99.90;;;;;;5017650;28;20050;-89
2022/03/20 02:44:49;;;;;;;15.60;7.07;;;3.40;99.90;;;;;;5007062;28;20056;-85
2022/03/20 02:47:19;;;;;;;;;;;3.40;99.90;;;;;;5009534;28;20213;-87
2022/03/20 02:50:06;;;;;;;17.00;7.47;;;3.40;99.90;;;;;;5007177;28;20012;-86
2022/03/20 02:52:46;;;;;;;16.63;7.50;;;3.40;99.90;;;;;;5007016;28;20529;-86
2022/03/20 02:55:13;;;;;;;17.77;8.88;;;3.40;99.90;;;;;;4991554;28;20045;-88
2022/03/20 02:57:39;;;;;;;16.55;7.90;;;3.40;99.90;;;;;;5007073;28;20398;-87
2022/03/20 03:00:06;;;;;;;14.23;7.47;;;3.40;99.90;;;;;;5007780;28;20033;-87
2022/03/20 03:02:43;;;;;;;15.35;7.40;;;3.30;99.90;;;;;;5011740;28;20066;-86
2022/03/20 03:05:14;;;;;;;16.45;7.95;;;3.30;99.90;;;;;;4992759;28;20060;-87
2022/03/20 03:13:11;;;;;;;17.20;8.13;;;3.30;99.90;;;;;;5008372;28;20052;-87
2022/03/20 03:15:36;;;;;;;15.85;8.40;;;3.30;99.90;;;;;;5007101;28;20148;-87
2022/03/20 03:18:03;;;;;;;17.25;9.13;;;3.30;99.90;;;;;;5008090;28;20106;-87
2022/03/20 03:20:28;;;;;;;17.95;8.65;;;3.30;99.90;;;;;;5009047;28;20045;-88
2022/03/20 03:22:54;;;;;;;17.55;8.93;;;3.30;99.90;;;;;;5007545;28;20404;-87
2022/03/20 03:25:21;;;;;;;16.70;9.63;;;3.20;99.90;;;;;;5007850;28;20098;-86
2022/03/20 03:27:47;;;;;;;19.23;8.57;;;3.20;99.90;;;;;;5017474;28;20045;-87
2022/03/20 03:30:13;;;;;;;14.05;7.97;;;3.20;99.90;;;;;;5030390;28;20460;-88
2022/03/20 03:32:40;;;;;;;14.68;7.95;;;3.20;99.90;;;;;;5018597;28;20041;-86
2022/03/20 03:37:54;;;;;;;17.40;9.70;;;3.20;99.90;;;;;;5009644;28;20057;-85
2022/03/20 03:40:20;;;;;;;18.00;9.40;;;3.20;99.90;;;;;;4990766;28;20558;-87
2022/03/20 03:42:46;;;;;;;17.85;9.05;;;3.20;99.90;;;;;;5006631;28;20045;-87
2022/03/20 03:45:12;;;;;;;18.63;9.93;;;3.20;99.90;;;;;;4990411;28;20065;-87
2022/03/20 03:47:38;;;;;;;18.63;9.70;;;3.20;99.90;;;;;;5007257;28;20038;-87
2022/03/20 03:50:04;;;;;;;18.77;10.30;;;3.20;99.90;;;;;;5008080;28;20068;-87
2022/03/20 03:52:30;;;;;;;20.65;10.82;;;3.10;99.90;;;;;;5006240;28;20066;-87
2022/03/20 03:54:55;;;;;;;17.67;9.68;;;3.10;99.90;;;;;;5039073;28;20092;-87
2022/03/20 03:57:21;;;;;;;17.73;9.75;;;3.10;99.90;;;;;;4990167;28;20383;-87
2022/03/20 03:59:47;;;;;;;16.95;8.45;;;3.10;99.90;;;;;;5007561;28;20118;-85
2022/03/20 04:02:14;;;;;;;20.65;9.18;;;3.10;99.90;;;;;;5007533;28;20089;-86
2022/03/20 04:04:41;;;;;;;18.30;9.25;;;3.00;99.90;;;;;;5006329;28;20468;-88
2022/03/20 04:07:07;;;;;;;20.42;12.25;;;3.00;99.90;;;;;;5007609;28;20038;-87
2022/03/20 04:09:32;;;;;;;20.23;10.32;;;3.10;99.90;;;;;;5014004;28;20084;-86
2022/03/20 04:11:58;;;;;;;19.90;10.27;;;3.00;99.90;;;;;;5023368;28;20505;-87
2022/03/20 04:14:24;;;;;;;20.17;11.07;;;3.00;99.90;;;;;;5006122;28;20053;-86
2022/03/20 04:16:50;;;;;;;19.02;10.70;;;3.00;99.90;;;;;;5007051;28;20106;-86
2022/03/20 04:19:16;;;;;;;19.55;10.68;;;3.00;99.90;;;;;;5007691;28;20045;-87
2022/03/20 04:21:42;;;;;;;18.40;9.52;;;3.00;99.90;;;;;;5007259;28;20053;-89
2022/03/20 04:24:08;;;;;;;18.90;10.55;;;3.00;99.90;;;;;;5012244;28;20055;-86
2022/03/20 04:26:34;;;;;;;18.13;10.50;;;3.00;99.90;;;;;;5025541;28;20046;-89
2022/03/20 04:29:00;;;;;;;21.10;11.70;;;3.00;99.90;;;;;;5007837;28;20057;-89
2022/03/20 04:31:26;;;;;;;21.60;11.02;;;3.00;99.90;;;;;;5007783;28;20083;-87
2022/03/20 04:33:53;;;;;;;20.20;11.32;;;2.90;99.90;;;;;;5005573;28;20050;-87
2022/03/20 04:36:21;;;;;;;20.77;11.82;;;2.90;99.90;;;;;;5008086;28;20038;-88
2022/03/20 04:38:48;;;;;;;18.67;12.38;;;2.90;99.90;;;;;;4989356;28;20410;-87
2022/03/20 04:41:14;;;;;;;19.88;11.02;;;2.90;99.90;;;;;;5005895;28;20054;-87
2022/03/20 04:43:40;;;;;;;22.10;12.40;;;2.90;99.90;;;;;;4988441;28;20099;-87
2022/03/20 04:46:06;;;;;;;19.38;11.27;;;2.80;99.90;;;;;;5007256;28;20038;-88
2022/03/20 04:59:28;;;;;;;20.00;12.18;;;2.80;99.90;;;;;;5005497;28;20061;-87
2022/03/20 05:01:53;;;;;;;27.08;12.07;;;2.80;99.90;;;;;;5005110;28;20514;-86
2022/03/20 05:04:19;;;;;;;21.27;11.35;;;2.70;99.90;;;;;;5007564;28;20054;-88
2022/03/20 05:06:45;;;;;;;20.80;12.95;;;2.70;99.90;;;;;;5005416;28;20054;-88
2022/03/20 05:14:40;;;;;;;24.58;12.25;;;2.70;99.90;;;;;;5006325;28;20085;-88
2022/03/20 05:17:08;;;;;;;22.00;11.48;;;2.60;99.90;;;;;;5005176;28;20134;-90
2022/03/20 05:19:37;;;;;;;22.98;11.95;;;2.60;99.90;;;;;;5005932;28;20078;-86
2022/03/20 05:22:04;;;;;;;25.50;13.05;;;2.60;99.90;;;;;;5007036;28;20053;-87
2022/03/20 05:24:31;;;;;;;22.23;12.95;;;2.60;99.90;;;;;;5001846;28;20528;-85
2022/03/20 05:26:56;;;;;;;23.42;13.50;;;2.60;99.90;;;;;;5005699;28;20409;-87
2022/03/20 05:29:25;;;;;;;20.10;12.63;;;2.60;99.90;;;;;;5005316;28;20046;-88
2022/03/20 05:31:51;;;;;;;22.60;12.57;;;2.60;99.90;;;;;;5006194;28;20073;-89
2022/03/20 05:34:17;;;;;;;23.65;13.35;;;2.60;99.90;;;;;;5005179;28;20054;-86
2022/03/20 05:36:43;;;;;;;21.35;13.23;;;2.50;99.90;;;;;;5006139;28;20057;-87
2022/03/20 05:39:09;;;;;;;23.13;13.63;;;2.50;99.90;;;;;;5004683;28;20046;-87
2022/03/20 05:41:47;;;;;;;20.40;12.57;;;2.50;99.90;;;;;;5005646;28;20498;-87
2022/03/20 05:44:13;;;;;;;21.60;12.50;;;2.50;99.90;;;;;;4988468;28;20050;-87
2022/03/20 05:46:40;;;;;;;22.40;12.98;;;2.50;99.90;;;;;;5004604;28;20102;-87
2022/03/20 05:49:06;;;;;;;23.67;13.13;;;2.40;99.90;;;;;;5005803;28;20420;-86
2022/03/20 05:51:37;;;;;;;26.00;15.02;;;2.50;99.90;;;;;;5016671;28;20050;-88
2022/03/20 05:54:03;;;;;;;21.75;13.02;;;2.50;99.90;;;;;;5012994;28;20058;-86
2022/03/20 05:59:13;;;;;;;21.95;12.98;;;2.40;99.90;;;;;;5006023;28;20056;-89
2022/03/20 06:01:39;;;;;;;24.35;13.05;;;2.40;99.90;;;;;;5008447;28;20133;-88
2022/03/20 06:04:05;;;;;;;24.30;11.90;;;2.40;99.90;;;;;;5010906;28;20150;-86
2022/03/20 06:06:35;;;;;;;21.92;11.02;;;2.40;99.90;;;;;;5011988;28;20123;-86
2022/03/20 06:09:04;;;;;;;23.95;13.00;;;2.50;99.90;;;;;;5010142;28;20061;-87
2022/03/20 06:11:30;;;;;;;24.42;14.38;;;2.40;99.90;;;;;;5014344;28;20042;-88
2022/03/20 06:13:58;;;;;;;28.83;13.75;;;2.50;99.90;;;;;;5028908;28;20409;-86
2022/03/20 06:16:23;;;;;;;21.80;13.48;;;2.50;99.90;;;;;;5012180;28;20037;-89
2022/03/20 06:18:49;;;;;;;25.65;14.35;;;2.50;99.90;;;;;;5009070;28;20107;-88
2022/03/20 06:21:15;;;;;;;23.95;14.23;;;2.50;99.90;;;;;;4991351;28;20402;-88
2022/03/20 06:23:41;;;;;;;24.73;13.40;;;2.50;99.90;;;;;;4997265;28;20412;-87
2022/03/20 06:26:10;;;;;;;23.90;13.93;;;2.50;99.90;;;;;;5014010;28;20041;-87
2022/03/20 06:28:38;;;;;;;24.40;13.70;;;2.60;99.90;;;;;;5030509;28;20040;-88
2022/03/20 06:31:03;;;;;;;25.35;14.48;;;2.70;99.90;;;;;;5015346;28;20049;-87
2022/03/20 06:33:29;;;;;;;23.33;13.95;;;2.70;99.90;;;;;;5009761;28;20053;-89
2022/03/20 06:35:54;;;;;;;24.55;14.38;;;2.70;99.90;;;;;;5007575;28;20060;-88
2022/03/20 06:38:20;;;;;;;21.02;12.38;;;2.80;99.90;;;;;;5026711;28;20041;-88
2022/03/20 06:40:46;;;;;;;22.17;13.93;;;2.80;99.90;;;;;;5018054;28;20051;-88
2022/03/20 06:43:12;;;;;;;23.67;15.52;;;2.80;99.90;;;;;;5012538;28;20052;-88
2022/03/20 06:45:38;;;;;;;23.92;14.80;;;2.90;99.90;;;;;;5010709;28;20379;-86
2022/03/20 06:48:04;;;;;;;23.23;14.10;;;2.90;99.90;;;;;;5039905;28;20049;-88
2022/03/20 06:50:30;;;;;;;22.65;13.45;;;3.00;99.90;;;;;;5007763;28;20045;-88
2022/03/20 06:53:01;;;;;;;24.17;14.63;;;3.00;99.90;;;;;;5007456;28;20042;-88
2022/03/20 06:55:26;;;;;;;24.83;13.82;;;3.10;99.90;;;;;;5008651;28;20309;-88
2022/03/20 06:57:52;;;;;;;23.17;13.88;;;3.10;99.90;;;;;;5007632;28;20053;-86
2022/03/20 07:00:18;;;;;;;23.98;13.38;;;3.20;99.90;;;;;;5007140;28;20067;-89
2022/03/20 07:02:43;;;;;;;24.45;14.38;;;3.20;99.90;;;;;;5022880;28;20062;-88
2022/03/20 07:05:09;;;;;;;23.27;14.27;;;3.30;99.90;;;;;;5020263;28;20053;-88
2022/03/20 07:07:35;;;;;;;23.50;15.38;;;3.40;99.90;;;;;;5013130;28;20056;-88
2022/03/20 07:10:02;;;;;;;23.05;15.20;;;3.40;99.90;;;;;;5026679;28;20053;-88
2022/03/20 07:12:27;;;;;;;28.73;16.17;;;3.60;99.90;;;;;;5011189;28;20109;-88
2022/03/20 07:14:54;;;;;;;26.90;15.05;;;3.70;99.90;;;;;;5026109;28;20060;-88
2022/03/20 07:17:21;;;;;;;24.95;15.07;;;3.70;99.90;;;;;;5026916;28;20046;-89
2022/03/20 07:19:47;;;;;;;26.45;14.25;;;3.80;99.90;;;;;;5025454;28;20101;-88
2022/03/20 07:22:14;;;;;;;23.83;14.27;;;3.80;99.90;;;;;;5008996;28;20059;-89
2022/03/20 07:24:42;;;;;;;24.02;15.10;;;3.80;99.90;;;;;;5007873;28;20041;-87
2022/03/20 07:29:57;;;;;;;25.83;14.65;;;3.90;99.90;;;;;;5067605;28;20467;-87
2022/03/20 07:32:23;;;;;;;25.17;14.02;;;3.90;99.90;;;;;;5033115;28;20056;-88
2022/03/20 07:34:50;;;;;;;24.90;14.75;;;3.90;99.90;;;;;;5032730;28;20044;-89
2022/03/20 07:37:18;;;;;;;26.23;14.85;;;4.00;99.90;;;;;;5050048;28;20087;-88
2022/03/20 07:39:45;;;;;;;24.75;14.50;;;4.00;99.90;;;;;;5046094;28;20073;-86
2022/03/20 07:42:13;;;;;;;25.83;16.25;;;4.00;99.90;;;;;;5063539;28;20078;-87
2022/03/20 07:44:39;;;;;;;24.75;15.82;;;4.00;99.90;;;;;;5088189;28;20052;-88
2022/03/20 07:47:08;;;;;;;23.70;14.73;;;4.00;99.90;;;;;;5052677;28;20125;-86
2022/03/20 07:49:37;;;;;;;23.67;14.60;;;4.00;99.90;;;;;;5051183;28;20044;-87
2022/03/20 07:52:05;;;;;;;24.10;14.05;;;4.10;99.90;;;;;;5030523;28;20045;-86
2022/03/20 07:54:31;;;;;;;25.05;14.90;;;4.10;99.90;;;;;;5048555;28;20060;-87
2022/03/20 07:56:56;;;;;;;24.80;14.50;;;4.30;99.90;;;;;;5047875;28;20095;-88
2022/03/20 07:59:22;;;;;;;25.90;13.98;;;4.30;99.90;;;;;;5050823;28;20045;-87
2022/03/20 08:01:48;;;;;;;25.10;14.73;;;4.40;99.90;;;;;;5057136;28;20053;-86
2022/03/20 08:04:14;;;;;;;23.02;14.15;;;4.60;99.90;;;;;;5014995;28;20551;-89
2022/03/20 08:06:39;;;;;;;23.70;13.95;;;4.70;99.90;;;;;;5030189;28;20120;-88
2022/03/20 08:09:05;;;;;;;26.27;16.38;;;4.90;99.90;;;;;;5024133;28;20037;-89
2022/03/20 08:11:30;;;;;;;24.38;14.85;;;5.00;98.50;;;;;;5022099;28;20046;-88
2022/03/20 08:13:57;;;;;;;23.98;14.95;;;5.10;99.90;;;;;;5039105;28;20387;-86
2022/03/20 08:16:26;;;;;;;24.30;16.38;;;5.10;97.70;;;;;;5010243;28;20049;-89
2022/03/20 08:18:56;;;;;;;24.65;15.55;;;5.20;99.30;;;;;;5005066;28;20058;-89
2022/03/20 08:21:22;;;;;;;24.38;15.70;;;5.20;93.90;;;;;;4990198;28;20046;-89
2022/03/20 08:23:48;;;;;;;23.92;14.93;;;5.30;99.90;;;;;;5006045;28;20375;-87
2022/03/20 08:26:14;;;;;;;21.45;15.25;;;5.40;90.80;;;;;;4991906;28;20070;-89
2022/03/20 08:28:42;;;;;;;24.80;15.10;;;5.50;99.90;;;;;;5010239;28;20083;-86
2022/03/20 08:31:08;;;;;;;24.27;17.30;;;5.50;94.90;;;;;;5008942;28;20038;-86
2022/03/20 08:33:34;;;;;;;25.65;15.20;;;5.50;84.20;;;;;;5008215;28;20049;-88
2022/03/20 08:36:00;;;;;;;23.90;16.60;;;5.60;90.30;;;;;;5008005;28;20045;-87
2022/03/20 08:38:26;;;;;;;25.92;17.65;;;5.60;84.10;;;;;;5027531;28;20049;-86
2022/03/20 08:40:52;;;;;;;25.08;16.85;;;5.70;83.40;;;;;;5011421;28;20518;-87
2022/03/20 08:43:18;;;;;;;27.42;16.23;;;5.90;85.20;;;;;;5008573;28;20063;-87
2022/03/20 08:45:44;;;;;;;24.48;17.15;;;6.00;85.20;;;;;;5007380;28;20053;-87
2022/03/20 08:48:10;;;;;;;25.77;17.05;;;6.20;80.90;;;;;;5008274;28;20075;-90
2022/03/20 08:50:37;;;;;;;25.17;17.25;;;6.30;83.70;;;;;;5010017;28;20045;-89
2022/03/20 08:53:03;;;;;;;22.92;16.95;;;6.40;82.10;;;;;;5014061;28;20046;-89
2022/03/20 08:55:31;;;;;;;27.17;17.77;;;6.50;81.10;;;;;;4996068;28;20060;-88
2022/03/20 08:57:56;;;;;;;27.85;17.63;;;6.50;79.10;;;;;;5019449;28;20041;-90
2022/03/20 09:00:23;;;;;;;23.50;16.77;;;6.60;80.20;;;;;;5026970;28;20044;-88
2022/03/20 09:02:50;;;;;;;24.45;16.98;;;6.70;81.20;;;;;;5026378;28;20053;-88
2022/03/20 09:05:17;;;;;;;25.88;17.55;;;6.70;77.00;;;;;;5026849;28;20248;-88
2022/03/20 09:07:44;;;;;;;26.70;16.75;;;6.70;74.10;;;;;;5026087;28;20052;-88
2022/03/20 09:10:13;;;;;;;25.75;17.88;;;6.80;73.20;;;;;;5027341;28;20120;-90
2022/03/20 09:12:38;;;;;;;26.33;17.73;;;6.80;76.50;;;;;;5025402;28;20041;-89
2022/03/20 09:15:07;;;;;;;27.85;18.30;;;6.90;75.00;;;;;;5009379;28;20474;-88
2022/03/20 09:20:17;;;;;;;25.33;18.17;;;7.00;73.10;;;;;;5006552;28;20042;-88
2022/03/20 09:22:43;;;;;;;26.85;18.52;;;7.10;70.30;;;;;;5007058;28;20056;-88
2022/03/20 09:25:09;;;;;;;27.58;19.58;;;7.10;72.00;;;;;;5007077;28;20042;-88
2022/03/20 09:27:35;;;;;;;28.27;18.58;;;7.20;70.40;;;;;;5006847;28;20405;-89
2022/03/20 09:30:03;;;;;;;27.45;19.08;;;7.30;70.70;;;;;;5006862;28;20054;-90
2022/03/20 09:32:28;;;;;;;25.25;22.48;;;7.30;69.90;;;;;;5006012;28;20089;-88
2022/03/20 09:34:54;;;;;;;24.58;21.63;;;7.40;69.00;;;;;;5004544;28;20432;-89
2022/03/20 09:37:19;;;;;;;26.13;22.77;;;7.50;68.10;;;;;;5007696;28;20038;-89
2022/03/20 09:39:45;;;;;;;26.23;22.58;;;7.60;67.10;;;;;;4992035;28;20046;-89
2022/03/20 09:42:11;;;;;;;24.73;18.27;;;7.60;67.00;;;;;;4992527;28;20561;-87
2022/03/20 09:44:40;;;;;;;25.38;18.95;;;7.70;67.70;;;;;;5010127;28;20394;-88
2022/03/20 09:47:16;;;;;;;27.13;18.55;;;7.90;67.00;;;;;;5009939;28;20055;-88
2022/03/20 09:49:44;;;;;;;27.15;23.27;;;7.90;66.10;;;;;;5009422;28;20075;-88
2022/03/20 09:52:10;;;;;;;26.95;23.13;;;8.00;65.40;;;;;;5010673;28;20065;-88
2022/03/20 09:54:35;;;;;;;25.40;22.52;;;8.00;65.90;;;;;;5009689;28;20042;-88
2022/03/20 09:57:06;;;;;;;26.90;19.17;;;8.20;65.80;;;;;;5008816;28;20081;-91
2022/03/20 09:59:34;;;;;;;27.40;20.15;;;8.20;64.50;;;;;;5002847;28;20439;-89
2022/03/20 10:02:03;;;;;;;26.63;23.42;;;8.20;63.80;;;;;;5029504;28;20136;-90
2022/03/20 10:04:29;;;;;;;27.55;19.35;;;8.30;63.30;;;;;;5029942;28;20136;-90
2022/03/20 10:06:54;;;;;;;27.35;19.75;;;8.30;64.40;;;;;;5028105;28;20121;-88
2022/03/20 10:09:23;;;;;;;27.52;23.58;;;8.30;64.10;;;;;;5029216;28;20049;-89
2022/03/20 10:11:54;;;;;;;26.70;23.92;;;8.40;63.80;;;;;;5030947;28;20045;-87
2022/03/20 10:14:31;;;;;;;28.95;24.48;;;8.40;61.40;;;;;;5028818;28;20042;-86
2022/03/20 10:17:16;;;;;;;27.90;24.83;;;8.50;61.70;;;;;;5018258;28;20038;-88
2022/03/20 10:19:41;;;;;;;26.58;23.70;;;8.50;62.80;;;;;;5015630;28;20442;-89
2022/03/20 10:22:09;;;;;;;28.05;24.33;;;8.60;62.70;;;;;;5012205;28;20096;-90
2022/03/20 10:24:37;;;;;;;28.55;20.40;;;8.70;63.80;;;;;;5010242;28;20081;-90
2022/03/20 10:27:03;;;;;;;26.88;23.38;;;8.70;63.00;;;;;;5012439;28;20041;-89
2022/03/20 10:29:31;;;;;;;26.13;23.27;;;8.80;61.90;;;;;;5030308;28;20046;-88
2022/03/20 10:32:11;;;;;;;26.33;23.30;;;8.80;61.10;;;;;;5006255;28;20042;-88
2022/03/20 10:34:54;;;;;;;27.45;23.50;;;8.90;61.60;;;;;;5009883;28;20041;-89
2022/03/20 10:37:41;;;;;;;26.83;23.92;;;9.00;60.60;;;;;;5010393;28;20046;-91
2022/03/20 10:40:12;;;;;;;28.75;23.58;;;9.00;61.20;;;;;;5010054;28;20046;-91
2022/03/20 10:42:38;;;;;;;;;;;9.10;60.60;;;;;;5020912;28;20041;-90
2022/03/20 10:45:06;;;;;;;28.48;24.33;;;9.00;59.20;;;;;;5012725;28;19982;-87
2022/03/20 10:47:31;;;;;;;27.98;24.35;;;9.10;61.50;;;;;;5020161;28;20395;-88
2022/03/20 10:50:07;;;;;;;28.13;20.13;;;9.20;61.10;;;;;;5027361;28;20049;-91
2022/03/20 10:52:36;;;;;;;27.55;24.52;;;9.30;59.40;;;;;;5009767;28;20048;-89
2022/03/20 10:55:10;;;;;;;26.83;23.92;;;9.40;60.90;;;;;;5009779;28;20056;-88
2022/03/20 10:57:36;;;;;;;28.55;24.25;;;9.50;61.00;;;;;;5008584;28;20038;-87
2022/03/20 11:00:07;;;;;;;29.83;24.33;;;9.60;60.40;;;;;;5008869;28;20094;-86
2022/03/20 11:02:37;;;;;;;29.45;25.05;;;9.60;60.80;;;;;;5017121;28;20088;-91
2022/03/20 11:05:03;;;;;;;29.15;25.27;;;9.70;59.60;;;;;;5033084;28;20163;-88
2022/03/20 11:07:29;;;;;;;28.52;23.90;;;9.70;59.00;;;;;;5024670;28;20073;-90
2022/03/20 11:09:55;;;;;;;26.88;23.98;;;9.70;58.70;;;;;;5030163;28;20050;-88
2022/03/20 11:12:28;;;;;;;29.63;24.92;;;9.80;59.40;;;;;;5016120;28;20054;-91
2022/03/20 11:15:00;;;;;;;29.65;24.85;;;9.90;59.20;;;;;;5008500;28;20129;-89
2022/03/20 11:17:36;;;;;;;27.73;24.73;;;9.90;58.80;;;;;;5008129;28;20046;-89
2022/03/20 11:20:02;;;;;;;27.48;24.58;;;10.10;58.90;;;;;;5009557;28;20046;-89
2022/03/20 11:22:30;;;;;;;27.65;24.45;;;10.00;58.10;;;;;;5016586;28;20049;-87
2022/03/20 11:24:56;;;;;;;27.98;24.80;;;10.10;58.40;;;;;;5027830;28;20402;-88
2022/03/20 11:27:26;;;;;;;27.80;24.42;;;10.20;59.30;;;;;;5018988;28;20050;-87
2022/03/20 11:29:55;;;;;;;28.55;25.10;;;10.30;58.80;;;;;;5007595;28;20443;-87
2022/03/20 11:32:21;;;;;;;26.98;24.08;;;10.40;58.50;;;;;;5037994;28;20057;-91
2022/03/20 11:34:48;;;;;;;28.38;25.02;;;10.40;57.60;;;;;;5007989;28;20403;-89
2022/03/20 11:37:15;;;;;;;27.05;23.92;;;10.50;58.40;;;;;;5007564;28;20049;-88
2022/03/20 11:40:22;;;;;;;27.58;24.15;;;10.50;57.90;;;;;;5008080;28;20050;-89
2022/03/20 11:43:11;;;;;;;27.90;24.67;;;10.50;56.90;;;;;;5005431;28;20042;-88
2022/03/20 11:45:37;;;;;;;27.67;24.17;;;10.60;58.10;;;;;;4988011;28;20050;-87
2022/03/20 11:48:15;;;;;;;27.55;24.58;;;10.70;57.60;;;;;;4996568;28;20501;-89
2022/03/20 11:50:47;;;;;;;27.27;24.05;;;10.80;56.10;;;;;;5021473;28;20379;-89
2022/03/20 11:53:25;;;;;;;29.35;24.42;;;10.90;56.80;;;;;;5008349;28;20050;-88
2022/03/20 11:55:51;;;;;;;27.33;24.20;;;11.00;57.40;;;;;;5007588;28;20426;-89
2022/03/20 11:58:16;;;;;;;29.60;25.20;;;11.10;56.80;;;;;;5006786;28;20049;-87
2022/03/20 12:00:44;;;;;;;27.80;24.83;;;11.10;56.40;;;;;;5004841;28;20046;-89
2022/03/20 12:03:11;;;;;;;28.15;25.15;;;11.10;56.30;;;;;;5015283;28;20401;-88
2022/03/20 12:05:52;;;;;;;27.80;24.67;;;11.10;56.70;;;;;;5021117;28;20052;-90
2022/03/20 12:08:35;;;;;;;26.90;24.00;;;11.20;56.80;;;;;;5012134;28;20121;-89
2022/03/20 12:11:06;;;;;;;28.83;24.40;;;11.30;56.30;;;;;;4992649;28;20081;-89
2022/03/20 12:13:56;;;;;;;28.75;25.75;;;11.30;56.20;;;;;;5007739;28;20050;-89
2022/03/20 12:16:43;;;;;;;29.35;25.20;;;11.40;55.10;;;;;;5008120;28;20077;-89
2022/03/20 12:19:14;;;;;;;28.35;25.17;;;11.40;54.50;;;;;;5039511;28;20482;-87
2022/03/20 12:21:59;;;;;;;28.00;25.17;;;11.40;55.90;;;;;;5007361;28;20046;-91
2022/03/20 12:24:55;;;;;;;29.65;25.42;;;11.40;55.10;;;;;;5002372;28;20050;-90
2022/03/20 12:27:24;;;;;;;29.35;26.17;;;11.30;54.20;;;;;;5007763;28;20406;-88
2022/03/20 12:29:54;;;;;;;27.85;24.42;;;11.20;55.90;;;;;;5005083;28;20054;-89
2022/03/20 12:32:24;;;;;;;27.67;24.67;;;11.30;56.20;;;;;;5008134;28;20046;-89
2022/03/20 12:34:56;;;;;;;27.70;24.80;;;11.30;56.20;;;;;;5007467;28;20061;-92
2022/03/20 12:37:32;;;;;;;29.17;26.17;;;11.40;55.10;;;;;;5008267;28;20042;-89
2022/03/20 12:40:08;;;;;;;28.35;25.42;;;11.40;56.00;;;;;;5004037;28;20384;-91
2022/03/20 12:42:36;;;;;;;30.13;25.48;;;11.30;54.90;;;;;;5019099;28;20120;-87
2022/03/20 12:45:04;;;;;;;29.00;25.90;;;11.30;55.80;;;;;;4988987;28;20278;-86
2022/03/20 12:47:30;;;;;;;29.30;25.55;;;11.30;55.50;;;;;;5007791;28;20133;-86
2022/03/20 12:50:00;;;;;;;28.73;25.58;;;11.40;56.40;;;;;;5001804;28;20113;-87
2022/03/20 12:52:27;;;;;;;28.83;25.55;;;11.50;55.40;;;;;;5025940;28;20046;-87
2022/03/20 12:55:11;;;;;;;30.38;25.42;;;11.60;56.20;;;;;;4981370;28;20513;-88
2022/03/20 12:57:44;;;;;;;31.02;25.75;;;11.70;55.40;;;;;;4988669;28;20038;-87
2022/03/20 13:00:18;;;;;;;30.05;26.75;;;11.70;55.80;;;;;;4986462;28;20100;-87
2022/03/20 13:03:07;;;;;;;29.73;25.25;;;11.70;55.50;;;;;;4987064;28;20065;-87
2022/03/20 13:05:52;;;;;;;28.98;25.77;;;11.70;55.60;;;;;;4992970;28;20394;-89
2022/03/20 13:08:26;;;;;;;29.52;26.23;;;11.50;55.70;;;;;;4993045;28;20393;-86
2022/03/20 13:11:00;;;;;;;29.02;25.92;;;11.40;55.40;;;;;;4985292;28;20152;-87
2022/03/20 13:13:34;;;;;;;30.02;25.10;;;11.40;56.10;;;;;;5002962;28;20044;-88
2022/03/20 13:16:00;;;;;;;29.75;25.80;;;11.30;55.60;;;;;;5015053;28;20052;-87